Mullendorf, Luxembourg
Current Conditions -  °F | °C
As of 7:50 PM on Wednesday 26 Nov 2014 (Local Time) from ELLX Reporting Station
Moderate Fog Moderate Fog  
Wind Chill: 38°   Ceiling: 100
Heat Index: 41°   Visibility: 0.31mi
Dew Point: 41°   Wind: 5mph
Humidity: 100%   Direction: 100°E
Pressure: 29.88"   Gusts: NA
Location:  49.68°N, 6.13°E
Report Text: ELLX 261850Z 10004KT 070V130 0500 R24/P1500N FG OVC001 05/05 Q1012 NOSIG
Loading
Personal Weather Stations






























Interactive Weather Map New forecast layout! Learn more

10-Day Weather Forecast

Advertisements
Track Severe Weather on mobile